Time;durP1;ratioP1;P1;durP2;ratioP2;P2;SDS_P1;SDS_P2;PMS_P1;PMS_P2;Temp;Humidity;BMP_temperature;BMP_pressure;BME280_temperature;BME280_humidity;BME280_pressure;Samples;Min_cycle;Max_cycle;Signal;HPM_P1;HPM_P2
2023/10/28 00:02:35;;;;;;;3.70;1.90;;;;;;;;;;5114521;28;20016;-73
2023/10/28 00:05:21;;;;;;;3.95;1.70;;;;;;;;;;5114262;28;20012;-73
2023/10/28 00:08:07;;;;;;;4.85;2.47;;;;;;;;;;5113528;28;20038;-73
2023/10/28 00:10:53;;;;;;;3.67;2.42;;;;;;;;;;5114909;28;20028;-73
2023/10/28 00:13:39;;;;;;;4.07;2.10;;;;;;;;;;5099879;28;20031;-73
2023/10/28 00:16:25;;;;;;;3.20;2.10;;;;;;;;;;5114046;28;20042;-73
2023/10/28 00:19:10;;;;;;;5.22;2.10;;;;;;;;;;5114732;28;20148;-73
2023/10/28 00:21:56;;;;;;;3.83;1.98;;;;;;;;;;5098895;28;20019;-73
2023/10/28 00:24:42;;;;;;;3.35;1.83;;;;;;;;;;5113949;28;20030;-74
2023/10/28 00:27:27;;;;;;;3.72;2.00;;;;;;;;;;5113877;28;20011;-73
2023/10/28 00:30:13;;;;;;;4.57;1.77;;;;;;;;;;5114155;28;20019;-73
2023/10/28 00:32:58;;;;;;;4.22;1.63;;;;;;;;;;5098902;28;20729;-73
2023/10/28 00:35:44;;;;;;;3.60;2.10;;;;;;;;;;5113637;28;20031;-74
2023/10/28 00:38:30;;;;;;;3.45;1.80;;;;;;;;;;5113913;28;20081;-73
2023/10/28 00:41:17;;;;;;;4.15;1.83;;;;;;;;;;5114118;28;20023;-73
2023/10/28 00:44:02;;;;;;;5.03;1.60;;;;;;;;;;5114586;28;20024;-72
2023/10/28 00:46:48;;;;;;;4.30;1.70;;;;;;;;;;5117424;28;20343;-73
2023/10/28 00:49:34;;;;;;;1.92;1.30;;;;;;;;;;5117156;28;20019;-73
2023/10/28 00:52:21;;;;;;;2.25;1.35;;;;;;;;;;5117229;28;20055;-73
2023/10/28 00:55:10;;;;;;;2.85;1.30;;;;;;;;;;5102618;28;20312;-73
2023/10/28 00:57:56;;;;;;;1.42;1.02;;;;;;;;;;5116892;28;20110;-73
2023/10/28 01:00:42;;;;;;;1.92;1.20;;;;;;;;;;5117297;28;20027;-73
2023/10/28 01:03:30;;;;;;;5.07;1.00;;;;;;;;;;5116878;28;20085;-73
2023/10/28 01:06:16;;;;;;;2.17;1.15;;;;;;;;;;5102372;28;20317;-74
2023/10/28 01:09:01;;;;;;;2.65;1.17;;;;;;;;;;5117465;28;20020;-73
2023/10/28 01:11:48;;;;;;;3.20;1.10;;;;;;;;;;5116676;28;20099;-73
2023/10/28 01:14:33;;;;;;;1.92;1.02;;;;;;;;;;5117281;28;20027;-73
2023/10/28 01:17:21;;;;;;;1.65;0.75;;;;;;;;;;5101727;28;20080;-73
2023/10/28 01:20:09;;;;;;;2.60;1.00;;;;;;;;;;5116813;28;20034;-73
2023/10/28 01:22:54;;;;;;;2.97;1.00;;;;;;;;;;5102251;28;20058;-73
2023/10/28 01:25:40;;;;;;;5.30;1.75;;;;;;;;;;5116770;28;20012;-72
2023/10/28 01:28:26;;;;;;;4.43;1.30;;;;;;;;;;5116942;28;20193;-74
2023/10/28 01:31:12;;;;;;;2.38;1.50;;;;;;;;;;5116504;28;20016;-73
2023/10/28 01:33:58;;;;;;;2.92;1.45;;;;;;;;;;5117011;28;20027;-72
2023/10/28 01:36:45;;;;;;;2.58;1.50;;;;;;;;;;5116731;28;20022;-74
2023/10/28 01:39:31;;;;;;;2.40;1.63;;;;;;;;;;5116581;28;20031;-72
2023/10/28 01:42:17;;;;;;;4.30;1.60;;;;;;;;;;5116350;28;20116;-72
2023/10/28 01:45:03;;;;;;;3.83;1.70;;;;;;;;;;5101977;28;20176;-74
2023/10/28 01:47:49;;;;;;;2.40;1.50;;;;;;;;;;5100909;28;20027;-72
2023/10/28 01:50:34;;;;;;;2.78;1.48;;;;;;;;;;5115628;28;20059;-73
2023/10/28 01:53:20;;;;;;;4.35;1.65;;;;;;;;;;5116170;28;20023;-73
2023/10/28 01:56:05;;;;;;;3.47;1.70;;;;;;;;;;5115544;28;20008;-73
2023/10/28 01:58:51;;;;;;;2.50;1.85;;;;;;;;;;5116701;28;20410;-73
2023/10/28 02:01:37;;;;;;;4.40;1.90;;;;;;;;;;5116574;28;20034;-73
2023/10/28 02:04:22;;;;;;;2.42;1.80;;;;;;;;;;5101459;28;20111;-73
2023/10/28 02:07:08;;;;;;;5.68;2.05;;;;;;;;;;5101421;28;20333;-72
2023/10/28 02:09:53;;;;;;;2.58;1.50;;;;;;;;;;5101006;28;20020;-73
2023/10/28 02:12:39;;;;;;;4.63;2.05;;;;;;;;;;5116152;28;20027;-73
2023/10/28 02:15:25;;;;;;;4.22;1.83;;;;;;;;;;5115646;28;20102;-72
2023/10/28 02:18:10;;;;;;;2.13;1.48;;;;;;;;;;5115926;28;20085;-73
2023/10/28 02:20:56;;;;;;;2.83;1.92;;;;;;;;;;5115243;28;20033;-72
2023/10/28 02:23:42;;;;;;;3.28;1.77;;;;;;;;;;5116597;28;20046;-72
2023/10/28 02:26:27;;;;;;;3.35;1.70;;;;;;;;;;5116482;28;20410;-72
2023/10/28 02:29:13;;;;;;;3.78;1.85;;;;;;;;;;5100524;28;20023;-72
2023/10/28 02:31:58;;;;;;;3.55;1.80;;;;;;;;;;5115845;28;20106;-72
2023/10/28 02:34:44;;;;;;;2.85;1.42;;;;;;;;;;5101227;28;20016;-73
2023/10/28 02:37:29;;;;;;;3.92;2.45;;;;;;;;;;5115463;28;20024;-72
2023/10/28 02:40:15;;;;;;;4.40;1.70;;;;;;;;;;5115469;28;20023;-73
2023/10/28 02:43:01;;;;;;;2.75;1.45;;;;;;;;;;5115568;28;20325;-72
2023/10/28 02:45:46;;;;;;;2.28;1.50;;;;;;;;;;5100074;28;20015;-73
2023/10/28 02:48:32;;;;;;;3.20;1.40;;;;;;;;;;5098941;28;20020;-73
2023/10/28 02:51:18;;;;;;;2.55;1.27;;;;;;;;;;5114568;28;20428;-72
2023/10/28 02:54:04;;;;;;;4.03;1.30;;;;;;;;;;5100319;28;20087;-72
2023/10/28 02:56:50;;;;;;;3.33;1.27;;;;;;;;;;5114756;28;20019;-72
2023/10/28 02:59:35;;;;;;;5.75;2.58;;;;;;;;;;5114980;28;20084;-72
2023/10/28 03:02:21;;;;;;;5.80;1.67;;;;;;;;;;5114993;28;20358;-72
2023/10/28 03:05:06;;;;;;;2.72;1.50;;;;;;;;;;5115094;28;20360;-72
2023/10/28 03:07:52;;;;;;;2.78;1.50;;;;;;;;;;5114318;28;20108;-72
2023/10/28 03:10:38;;;;;;;2.72;1.58;;;;;;;;;;5114405;28;20019;-72
2023/10/28 03:13:23;;;;;;;2.92;1.50;;;;;;;;;;5114583;28;20023;-73
2023/10/28 03:16:09;;;;;;;2.97;1.25;;;;;;;;;;5114849;28;20047;-73
2023/10/28 03:18:55;;;;;;;3.53;1.35;;;;;;;;;;5114501;28;20012;-73
2023/10/28 03:21:41;;;;;;;4.25;1.58;;;;;;;;;;5114294;28;20133;-71
2023/10/28 03:24:26;;;;;;;4.35;1.40;;;;;;;;;;5100026;28;20440;-74
2023/10/28 03:27:12;;;;;;;2.65;1.38;;;;;;;;;;5114189;28;20019;-75
2023/10/28 03:29:58;;;;;;;4.40;1.23;;;;;;;;;;5099524;28;20035;-73
2023/10/28 03:32:44;;;;;;;3.78;1.40;;;;;;;;;;5114562;28;20367;-73
2023/10/28 03:35:29;;;;;;;3.35;1.17;;;;;;;;;;5099665;28;20046;-73
2023/10/28 03:38:15;;;;;;;2.58;1.27;;;;;;;;;;5114391;28;20016;-73
2023/10/28 03:41:10;;;;;;;2.72;1.30;;;;;;;;;;5113447;28;20049;-74
2023/10/28 03:43:55;;;;;;;4.57;1.55;;;;;;;;;;5115720;28;20030;-73
2023/10/28 03:46:41;;;;;;;4.82;1.40;;;;;;;;;;5115338;28;20072;-74
2023/10/28 03:49:27;;;;;;;3.63;1.70;;;;;;;;;;5116012;28;20370;-73
2023/10/28 03:52:12;;;;;;;5.20;1.33;;;;;;;;;;5114885;28;20434;-72
2023/10/28 03:54:58;;;;;;;2.15;1.30;;;;;;;;;;5100037;28;20052;-72
2023/10/28 03:57:43;;;;;;;3.05;1.42;;;;;;;;;;5113963;28;20015;-73
2023/10/28 04:00:29;;;;;;;3.50;1.50;;;;;;;;;;5099967;28;20024;-73
2023/10/28 04:03:15;;;;;;;4.10;1.50;;;;;;;;;;5113725;28;20031;-73
2023/10/28 04:06:00;;;;;;;4.47;1.75;;;;;;;;;;5099814;28;20031;-73
2023/10/28 04:08:46;;;;;;;2.85;1.40;;;;;;;;;;5113667;28;20020;-73
2023/10/28 04:11:31;;;;;;;4.65;1.33;;;;;;;;;;5113425;28;20110;-73
2023/10/28 04:14:17;;;;;;;2.20;1.40;;;;;;;;;;5113933;28;20089;-72
2023/10/28 04:17:03;;;;;;;2.13;1.38;;;;;;;;;;5099567;28;20039;-72
2023/10/28 04:19:48;;;;;;;2.33;1.60;;;;;;;;;;5115012;28;20092;-72
2023/10/28 04:22:34;;;;;;;2.95;1.33;;;;;;;;;;5103234;28;20031;-73
2023/10/28 04:25:20;;;;;;;3.70;1.40;;;;;;;;;;5101946;28;20019;-73
2023/10/28 04:28:05;;;;;;;3.15;1.40;;;;;;;;;;5117830;28;20020;-72
2023/10/28 04:30:55;;;;;;;4.05;1.38;;;;;;;;;;5117036;28;20031;-72
2023/10/28 04:33:41;;;;;;;2.33;1.30;;;;;;;;;;5116717;28;20114;-72
2023/10/28 04:36:27;;;;;;;3.75;1.60;;;;;;;;;;5116796;28;20011;-73
2023/10/28 04:39:12;;;;;;;5.47;1.58;;;;;;;;;;5117670;28;20356;-73
2023/10/28 04:41:58;;;;;;;3.75;1.52;;;;;;;;;;5117524;28;20027;-73
2023/10/28 04:44:43;;;;;;;3.72;1.50;;;;;;;;;;5118194;28;20156;-72
2023/10/28 04:47:29;;;;;;;5.22;1.58;;;;;;;;;;5116912;28;20012;-73
2023/10/28 04:50:16;;;;;;;4.78;1.50;;;;;;;;;;5117328;28;20038;-74
2023/10/28 04:53:02;;;;;;;6.97;1.88;;;;;;;;;;5116924;28;20096;-72
2023/10/28 04:55:48;;;;;;;5.22;1.60;;;;;;;;;;5117622;28;20185;-73
2023/10/28 04:58:34;;;;;;;5.05;1.60;;;;;;;;;;5116700;28;20031;-74
2023/10/28 05:01:20;;;;;;;2.35;1.60;;;;;;;;;;5116313;28;20034;-72
2023/10/28 05:04:05;;;;;;;4.35;1.45;;;;;;;;;;5101691;28;20394;-72
2023/10/28 05:06:51;;;;;;;5.07;1.77;;;;;;;;;;5116858;28;20023;-73
2023/10/28 05:09:37;;;;;;;3.58;1.42;;;;;;;;;;5116713;28;20398;-72
2023/10/28 05:12:22;;;;;;;2.63;1.30;;;;;;;;;;5115654;28;20019;-74
2023/10/28 05:15:09;;;;;;;2.58;1.50;;;;;;;;;;5116321;28;20047;-72
2023/10/28 05:17:54;;;;;;;4.60;1.67;;;;;;;;;;5102203;28;20104;-73
2023/10/28 05:20:40;;;;;;;3.35;1.35;;;;;;;;;;5102261;28;20381;-73
2023/10/28 05:23:25;;;;;;;4.25;1.38;;;;;;;;;;5116910;28;20027;-73
2023/10/28 05:26:11;;;;;;;5.07;1.88;;;;;;;;;;5115871;28;20103;-74
2023/10/28 05:28:57;;;;;;;4.05;1.58;;;;;;;;;;5115815;28;20012;-74
2023/10/28 05:31:43;;;;;;;3.83;1.60;;;;;;;;;;5115737;28;20034;-73
2023/10/28 05:34:29;;;;;;;3.70;1.50;;;;;;;;;;5101431;28;20447;-73
2023/10/28 05:37:14;;;;;;;4.13;1.73;;;;;;;;;;5116594;28;20115;-74
2023/10/28 05:40:00;;;;;;;4.97;1.70;;;;;;;;;;5115957;28;20050;-74
2023/10/28 05:42:45;;;;;;;3.13;1.70;;;;;;;;;;5116035;28;20037;-73
2023/10/28 05:45:31;;;;;;;2.42;1.60;;;;;;;;;;5116602;28;20023;-73
2023/10/28 05:48:17;;;;;;;4.35;1.65;;;;;;;;;;5116176;28;20151;-72
2023/10/28 05:51:04;;;;;;;4.28;1.80;;;;;;;;;;5101318;28;20464;-73
2023/10/28 05:53:49;;;;;;;9.05;1.60;;;;;;;;;;5115241;28;20509;-73
2023/10/28 05:56:35;;;;;;;2.20;1.25;;;;;;;;;;5116522;28;20020;-73
2023/10/28 05:59:21;;;;;;;2.72;1.30;;;;;;;;;;5100410;28;20461;-73
2023/10/28 06:02:06;;;;;;;5.10;1.63;;;;;;;;;;5101883;28;20028;-72
2023/10/28 06:04:52;;;;;;;5.90;1.80;;;;;;;;;;5116329;28;20081;-73
2023/10/28 06:07:37;;;;;;;5.72;1.80;;;;;;;;;;5101261;28;20460;-73
2023/10/28 06:10:25;;;;;;;4.10;1.60;;;;;;;;;;5115589;28;20020;-73
2023/10/28 06:13:10;;;;;;;3.33;1.40;;;;;;;;;;5115352;28;20061;-74
2023/10/28 06:15:56;;;;;;;4.53;1.40;;;;;;;;;;5115169;28;20012;-73
2023/10/28 06:18:41;;;;;;;3.78;1.40;;;;;;;;;;5114777;28;20046;-74
2023/10/28 06:21:27;;;;;;;3.63;1.58;;;;;;;;;;5115572;28;20030;-73
2023/10/28 06:24:12;;;;;;;2.92;1.40;;;;;;;;;;5115340;28;20081;-73
2023/10/28 06:26:59;;;;;;;2.60;1.27;;;;;;;;;;5115619;28;20056;-74
2023/10/28 06:29:44;;;;;;;3.97;1.63;;;;;;;;;;5114529;28;20030;-73
2023/10/28 06:32:30;;;;;;;3.95;1.20;;;;;;;;;;5115222;28;20030;-73
2023/10/28 06:35:16;;;;;;;4.57;1.42;;;;;;;;;;5114960;28;20110;-73
2023/10/28 06:38:02;;;;;;;3.67;1.30;;;;;;;;;;5114107;28;20429;-73
2023/10/28 06:40:48;;;;;;;1.95;1.20;;;;;;;;;;5113711;28;20034;-74
2023/10/28 06:43:33;;;;;;;5.88;1.30;;;;;;;;;;5114109;28;20016;-73
2023/10/28 06:46:19;;;;;;;6.60;1.20;;;;;;;;;;5100077;28;20023;-73
2023/10/28 06:49:05;;;;;;;7.95;1.40;;;;;;;;;;5114752;28;20034;-73
2023/10/28 06:51:51;;;;;;;3.55;1.17;;;;;;;;;;5100298;28;20047;-73
2023/10/28 06:54:37;;;;;;;2.15;0.98;;;;;;;;;;5114807;28;20020;-73
2023/10/28 06:57:23;;;;;;;3.40;1.10;;;;;;;;;;5115467;28;20023;-73
2023/10/28 07:00:15;;;;;;;4.03;1.20;;;;;;;;;;5114804;28;20359;-74
2023/10/28 07:03:01;;;;;;;2.42;1.30;;;;;;;;;;5115313;28;20027;-73
2023/10/28 07:05:47;;;;;;;3.85;1.15;;;;;;;;;;5115005;28;20015;-73
2023/10/28 07:08:32;;;;;;;1.80;1.00;;;;;;;;;;5115789;28;20023;-73
2023/10/28 07:11:18;;;;;;;2.10;1.25;;;;;;;;;;5116532;28;20111;-71
2023/10/28 07:14:03;;;;;;;6.15;1.17;;;;;;;;;;5115114;28;20027;-73
2023/10/28 07:16:49;;;;;;;10.00;1.30;;;;;;;;;;5115121;28;20343;-73
2023/10/28 07:19:35;;;;;;;4.43;1.00;;;;;;;;;;5114886;28;20434;-75
2023/10/28 07:22:20;;;;;;;3.88;1.10;;;;;;;;;;5114239;28;20024;-74
2023/10/28 07:25:06;;;;;;;3.15;1.05;;;;;;;;;;5113323;28;20023;-74
2023/10/28 07:27:52;;;;;;;1.92;0.90;;;;;;;;;;5114516;28;20024;-74
2023/10/28 07:30:43;;;;;;;5.00;1.00;;;;;;;;;;5114100;28;20011;-74
2023/10/28 07:33:28;;;;;;;6.05;1.20;;;;;;;;;;5114339;28;20089;-74
2023/10/28 07:36:14;;;;;;;4.20;1.58;;;;;;;;;;5114608;28;20023;-74
2023/10/28 07:39:01;;;;;;;4.68;1.15;;;;;;;;;;5099005;28;20043;-74
2023/10/28 07:41:47;;;;;;;3.25;1.40;;;;;;;;;;5099606;28;20019;-74
2023/10/28 07:44:32;;;;;;;3.63;0.90;;;;;;;;;;5115357;28;20031;-74
2023/10/28 07:47:18;;;;;;;13.02;3.70;;;;;;;;;;5113916;28;20019;-73
2023/10/28 07:50:04;;;;;;;6.15;1.55;;;;;;;;;;5113842;28;20016;-75
2023/10/28 07:52:50;;;;;;;4.43;1.58;;;;;;;;;;5099758;28;20032;-73
2023/10/28 07:55:38;;;;;;;6.65;1.48;;;;;;;;;;5118161;28;20068;-74
2023/10/28 07:58:24;;;;;;;6.05;1.27;;;;;;;;;;5119407;28;20023;-73
2023/10/28 08:01:14;;;;;;;8.55;1.85;;;;;;;;;;5118335;28;20019;-73
2023/10/28 08:04:04;;;;;;;5.97;1.40;;;;;;;;;;5119392;28;20078;-74
2023/10/28 08:06:50;;;;;;;4.38;1.30;;;;;;;;;;5118462;28;20032;-74
2023/10/28 08:09:36;;;;;;;8.77;1.80;;;;;;;;;;5117962;28;20024;-74
2023/10/28 08:12:22;;;;;;;4.72;1.20;;;;;;;;;;5119079;28;20024;-73
2023/10/28 08:15:08;;;;;;;5.10;1.35;;;;;;;;;;5118791;28;20074;-74
2023/10/28 08:17:55;;;;;;;9.05;1.10;;;;;;;;;;5118249;28;20062;-73
2023/10/28 08:20:44;;;;;;;5.85;1.45;;;;;;;;;;5104197;28;20031;-73
2023/10/28 08:23:29;;;;;;;5.45;1.40;;;;;;;;;;5117721;28;20028;-74
2023/10/28 08:26:18;;;;;;;9.73;1.25;;;;;;;;;;5118639;28;20012;-73
2023/10/28 08:29:03;;;;;;;8.30;1.58;;;;;;;;;;5104608;28;20107;-74
2023/10/28 08:31:49;;;;;;;5.38;1.25;;;;;;;;;;5118557;28;20042;-73
2023/10/28 08:34:35;;;;;;;2.78;1.10;;;;;;;;;;5118896;28;20051;-74
2023/10/28 08:37:21;;;;;;;4.00;1.17;;;;;;;;;;5105455;28;20094;-74
2023/10/28 08:40:10;;;;;;;6.15;1.35;;;;;;;;;;5118548;28;20031;-74
2023/10/28 08:42:56;;;;;;;5.68;1.52;;;;;;;;;;5118540;28;20047;-73
2023/10/28 08:45:42;;;;;;;4.15;1.15;;;;;;;;;;5118930;28;20463;-72
2023/10/28 08:48:28;;;;;;;7.13;1.50;;;;;;;;;;5104058;28;20432;-74
2023/10/28 08:51:14;;;;;;;2.45;1.33;;;;;;;;;;5117663;28;20412;-74
2023/10/28 08:54:02;;;;;;;50.92;6.05;;;;;;;;;;5118059;28;20062;-74
2023/10/28 08:56:48;;;;;;;6.47;1.90;;;;;;;;;;5118391;28;20024;-73
2023/10/28 08:59:34;;;;;;;4.38;1.10;;;;;;;;;;5102647;28;20016;-73
2023/10/28 09:02:20;;;;;;;6.25;1.67;;;;;;;;;;5111448;28;20020;-73
2023/10/28 09:05:06;;;;;;;5.07;1.40;;;;;;;;;;5116454;28;20022;-74
2023/10/28 09:07:52;;;;;;;12.63;1.67;;;;;;;;;;5116933;28;20015;-74
2023/10/28 09:10:40;;;;;;;3.80;1.42;;;;;;;;;;5117089;28;20024;-73
2023/10/28 09:13:25;;;;;;;2.53;1.13;;;;;;;;;;5103175;28;20355;-73
2023/10/28 09:16:11;;;;;;;8.80;1.27;;;;;;;;;;5102341;28;20035;-74
2023/10/28 09:18:57;;;;;;;17.58;1.65;;;;;;;;;;5116827;28;20028;-74
2023/10/28 09:21:43;;;;;;;5.47;1.20;;;;;;;;;;5116671;28;20032;-74
2023/10/28 09:24:29;;;;;;;2.38;1.15;;;;;;;;;;5117064;28;20461;-73
2023/10/28 09:27:15;;;;;;;3.67;1.30;;;;;;;;;;5116547;28;20028;-74
2023/10/28 09:30:05;;;;;;;5.78;1.67;;;;;;;;;;5089708;28;20015;-74
2023/10/28 09:32:52;;;;;;;3.90;1.42;;;;;;;;;;5117761;28;20352;-74
2023/10/28 09:35:39;;;;;;;4.63;1.25;;;;;;;;;;5102772;28;20043;-75
2023/10/28 09:38:26;;;;;;;5.05;1.70;;;;;;;;;;5116189;28;20096;-73
2023/10/28 09:41:14;;;;;;;13.52;2.17;;;;;;;;;;5116747;28;20034;-73
2023/10/28 09:44:00;;;;;;;3.95;1.45;;;;;;;;;;5116433;28;20012;-74
2023/10/28 09:46:48;;;;;;;7.35;1.38;;;;;;;;;;5102892;28;20035;-74
2023/10/28 09:49:38;;;;;;;5.43;1.45;;;;;;;;;;5116797;28;20015;-73
2023/10/28 09:52:26;;;;;;;4.07;1.38;;;;;;;;;;5115318;28;20360;-73
2023/10/28 09:55:15;;;;;;;3.40;1.60;;;;;;;;;;5117484;28;20102;-72
2023/10/28 09:58:31;;;;;;;9.20;1.65;;;;;;;;;;5116353;28;20110;-74
2023/10/28 10:01:23;;;;;;;4.38;1.50;;;;;;;;;;5110643;28;20031;-73
2023/10/28 10:04:16;;;;;;;8.85;1.40;;;;;;;;;;5116255;28;20103;-73
2023/10/28 10:07:02;;;;;;;2.55;1.23;;;;;;;;;;5101041;28;20099;-73
2023/10/28 10:09:48;;;;;;;5.03;1.70;;;;;;;;;;5115540;28;20031;-75
2023/10/28 10:12:33;;;;;;;4.25;1.45;;;;;;;;;;5101016;28;20016;-74
2023/10/28 10:15:22;;;;;;;4.03;1.45;;;;;;;;;;5105209;28;20034;-73
2023/10/28 10:18:10;;;;;;;3.28;1.33;;;;;;;;;;5116129;28;20037;-74
2023/10/28 10:21:04;;;;;;;5.45;1.50;;;;;;;;;;5119204;28;20027;-74
2023/10/28 10:23:50;;;;;;;10.45;1.75;;;;;;;;;;5120018;28;20046;-73
2023/10/28 10:26:36;;;;;;;4.60;1.40;;;;;;;;;;5119846;28;20083;-73
2023/10/28 10:29:22;;;;;;;2.22;1.25;;;;;;;;;;5118392;28;20023;-74
2023/10/28 10:32:17;;;;;;;2.33;1.55;;;;;;;;;;5115410;28;20035;-74
2023/10/28 10:35:08;;;;;;;3.05;1.23;;;;;;;;;;5119353;28;20062;-73
2023/10/28 10:38:03;;;;;;;8.60;1.52;;;;;;;;;;5115268;28;20054;-74
2023/10/28 10:40:50;;;;;;;4.88;1.42;;;;;;;;;;5116077;28;20529;-73
2023/10/28 10:43:38;;;;;;;4.47;1.50;;;;;;;;;;5115591;28;20028;-73
2023/10/28 10:46:23;;;;;;;5.07;1.27;;;;;;;;;;5115102;28;20094;-76
2023/10/28 10:49:09;;;;;;;4.40;1.70;;;;;;;;;;5115324;28;20108;-73
2023/10/28 10:51:55;;;;;;;3.33;1.33;;;;;;;;;;5115076;28;20116;-76
2023/10/28 10:54:40;;;;;;;7.07;1.58;;;;;;;;;;5114850;28;20098;-73
2023/10/28 10:57:26;;;;;;;2.38;1.20;;;;;;;;;;5115245;28;20028;-74
2023/10/28 11:00:12;;;;;;;7.40;1.30;;;;;;;;;;5114342;28;20088;-74
2023/10/28 11:02:59;;;;;;;5.60;1.30;;;;;;;;;;5099525;28;20452;-75
2023/10/28 11:05:44;;;;;;;3.10;1.23;;;;;;;;;;5115155;28;20365;-74
2023/10/28 11:08:30;;;;;;;4.60;1.30;;;;;;;;;;5115245;28;20020;-73
2023/10/28 11:11:15;;;;;;;5.90;1.50;;;;;;;;;;5114325;28;20039;-74
2023/10/28 11:14:04;;;;;;;4.00;1.50;;;;;;;;;;5114780;28;20016;-74
2023/10/28 11:16:50;;;;;;;4.70;1.48;;;;;;;;;;5114783;28;20023;-73
2023/10/28 11:19:36;;;;;;;6.78;1.17;;;;;;;;;;5100837;28;20416;-74
2023/10/28 11:22:21;;;;;;;2.75;1.17;;;;;;;;;;5099384;28;20347;-74
2023/10/28 11:25:07;;;;;;;4.95;1.40;;;;;;;;;;5114665;28;20091;-74
2023/10/28 11:27:53;;;;;;;5.07;1.60;;;;;;;;;;5114485;28;20073;-74
2023/10/28 11:30:38;;;;;;;4.50;1.75;;;;;;;;;;5114760;28;20023;-73
2023/10/28 11:33:27;;;;;;;4.07;1.40;;;;;;;;;;5115938;28;20054;-74
2023/10/28 11:36:13;;;;;;;2.70;1.30;;;;;;;;;;5115263;28;20106;-73
2023/10/28 11:39:07;;;;;;;2.60;1.02;;;;;;;;;;5114954;28;20452;-73
2023/10/28 11:41:54;;;;;;;5.72;1.50;;;;;;;;;;5114547;28;20340;-76
2023/10/28 11:44:39;;;;;;;3.90;1.60;;;;;;;;;;5099867;28;20016;-74
2023/10/28 11:47:27;;;;;;;2.58;1.20;;;;;;;;;;5115238;28;20077;-73
2023/10/28 11:50:13;;;;;;;6.00;1.20;;;;;;;;;;5113824;28;20436;-74
2023/10/28 11:52:58;;;;;;;5.20;1.10;;;;;;;;;;5100992;28;20036;-74
2023/10/28 11:55:45;;;;;;;2.78;1.10;;;;;;;;;;5115369;28;20024;-74
2023/10/28 11:58:30;;;;;;;3.05;1.00;;;;;;;;;;5114284;28;20028;-76
2023/10/28 12:01:16;;;;;;;2.17;1.38;;;;;;;;;;5114126;28;20016;-74
2023/10/28 12:04:03;;;;;;;3.30;1.00;;;;;;;;;;5114632;28;20047;-73
2023/10/28 12:06:48;;;;;;;3.80;1.20;;;;;;;;;;5113975;28;20023;-75
2023/10/28 12:09:36;;;;;;;5.32;1.40;;;;;;;;;;5113909;28;20365;-74
2023/10/28 12:12:22;;;;;;;8.35;1.20;;;;;;;;;;5113847;28;20030;-74
2023/10/28 12:15:09;;;;;;;3.83;1.30;;;;;;;;;;5113706;28;20098;-74
2023/10/28 12:17:55;;;;;;;3.40;1.20;;;;;;;;;;5113993;28;20425;-74
2023/10/28 12:20:40;;;;;;;5.78;1.30;;;;;;;;;;5114208;28;20077;-74
2023/10/28 12:23:26;;;;;;;4.82;1.63;;;;;;;;;;5099244;28;20046;-74
2023/10/28 12:26:12;;;;;;;4.88;1.58;;;;;;;;;;5098383;28;20016;-74
2023/10/28 12:28:57;;;;;;;6.22;1.30;;;;;;;;;;5115188;28;20019;-74
2023/10/28 12:31:43;;;;;;;3.05;1.10;;;;;;;;;;5113748;28;20035;-74
2023/10/28 12:34:29;;;;;;;6.80;1.45;;;;;;;;;;5114632;28;20465;-74
2023/10/28 12:37:14;;;;;;;5.70;1.40;;;;;;;;;;5114073;28;20321;-74
2023/10/28 12:40:00;;;;;;;4.18;1.20;;;;;;;;;;5114195;28;20448;-74
2023/10/28 12:42:48;;;;;;;4.05;1.67;;;;;;;;;;5118156;28;20436;-73
2023/10/28 12:45:33;;;;;;;11.50;1.63;;;;;;;;;;5118041;28;20019;-74
2023/10/28 12:48:19;;;;;;;6.07;1.55;;;;;;;;;;5118050;28;20026;-74
2023/10/28 12:51:04;;;;;;;3.85;1.20;;;;;;;;;;5102722;28;20126;-75
2023/10/28 12:53:50;;;;;;;2.90;1.50;;;;;;;;;;5117367;28;20444;-74
2023/10/28 12:56:36;;;;;;;3.63;1.52;;;;;;;;;;5116005;28;20412;-74
2023/10/28 12:59:22;;;;;;;3.88;1.75;;;;;;;;;;5117418;28;20023;-74
2023/10/28 13:02:07;;;;;;;4.45;1.60;;;;;;;;;;5117429;28;20161;-74
2023/10/28 13:04:53;;;;;;;2.15;1.10;;;;;;;;;;5117257;28;20015;-74
2023/10/28 13:07:39;;;;;;;3.50;1.60;;;;;;;;;;5117086;28;20099;-74
2023/10/28 13:10:24;;;;;;;2.67;1.35;;;;;;;;;;5102377;28;20073;-74
2023/10/28 13:13:10;;;;;;;2.58;1.30;;;;;;;;;;5117498;28;20019;-73
2023/10/28 13:15:56;;;;;;;5.40;1.60;;;;;;;;;;5124974;28;20028;-74
2023/10/28 13:18:41;;;;;;;6.65;1.33;;;;;;;;;;5126142;28;20083;-75
2023/10/28 13:21:27;;;;;;;4.72;1.70;;;;;;;;;;5124019;28;20024;-73
2023/10/28 13:24:12;;;;;;;7.63;1.60;;;;;;;;;;5123402;28;20158;-74
2023/10/28 13:26:59;;;;;;;8.55;1.77;;;;;;;;;;5122593;28;20451;-74
2023/10/28 13:29:44;;;;;;;4.03;1.67;;;;;;;;;;5118552;28;20084;-74
2023/10/28 13:32:30;;;;;;;5.75;1.60;;;;;;;;;;5124687;28;20019;-73
2023/10/28 13:35:16;;;;;;;5.25;1.80;;;;;;;;;;5121260;28;20418;-74
2023/10/28 13:38:02;;;;;;;4.03;1.48;;;;;;;;;;5122426;28;20024;-75
2023/10/28 13:40:47;;;;;;;4.78;1.63;;;;;;;;;;5120561;28;20028;-74
2023/10/28 13:43:33;;;;;;;8.52;1.80;;;;;;;;;;5118105;28;20387;-74
2023/10/28 13:46:18;;;;;;;5.38;1.40;;;;;;;;;;5116040;28;20443;-74
2023/10/28 13:49:05;;;;;;;4.60;1.40;;;;;;;;;;5116421;28;20024;-75
2023/10/28 13:51:50;;;;;;;4.35;1.30;;;;;;;;;;5100542;28;20089;-73
2023/10/28 13:54:36;;;;;;;6.57;1.40;;;;;;;;;;5115769;28;20027;-73
2023/10/28 13:57:22;;;;;;;4.07;1.50;;;;;;;;;;5116460;28;20084;-74
2023/10/28 14:00:10;;;;;;;5.35;1.80;;;;;;;;;;5101065;28;20416;-74
2023/10/28 14:02:56;;;;;;;8.00;1.70;;;;;;;;;;5116681;28;20038;-74
2023/10/28 14:05:42;;;;;;;9.13;1.42;;;;;;;;;;5117284;28;20023;-75
2023/10/28 14:08:27;;;;;;;5.25;1.70;;;;;;;;;;5115962;28;20041;-74
2023/10/28 14:11:14;;;;;;;3.42;1.20;;;;;;;;;;5120856;28;20024;-73
2023/10/28 14:14:00;;;;;;;4.85;1.40;;;;;;;;;;5122227;28;20011;-73
2023/10/28 14:16:45;;;;;;;5.35;1.67;;;;;;;;;;5116514;28;20066;-73
2023/10/28 14:19:31;;;;;;;5.72;1.50;;;;;;;;;;5101494;28;20085;-74
2023/10/28 14:22:21;;;;;;;8.55;1.70;;;;;;;;;;5115747;28;20032;-74
2023/10/28 14:25:09;;;;;;;8.50;1.80;;;;;;;;;;5120192;28;20016;-74
2023/10/28 14:27:55;;;;;;;6.45;1.85;;;;;;;;;;5119008;28;20027;-75
2023/10/28 14:30:40;;;;;;;2.65;1.35;;;;;;;;;;5119219;28;20127;-74
2023/10/28 14:33:26;;;;;;;6.80;1.90;;;;;;;;;;5102097;28;20027;-75
2023/10/28 14:36:12;;;;;;;7.55;2.53;;;;;;;;;;5115490;28;20071;-74
2023/10/28 14:38:57;;;;;;;9.40;2.72;;;;;;;;;;5115237;28;20115;-74
2023/10/28 14:41:43;;;;;;;5.32;2.80;;;;;;;;;;5115153;28;20119;-74
2023/10/28 14:44:31;;;;;;;8.50;2.40;;;;;;;;;;5100589;28;20080;-74
2023/10/28 14:47:16;;;;;;;9.10;2.53;;;;;;;;;;5115036;28;20020;-74
2023/10/28 14:50:02;;;;;;;7.38;2.13;;;;;;;;;;5106057;28;20024;-74
2023/10/28 14:52:48;;;;;;;8.30;2.70;;;;;;;;;;5115154;28;20110;-74
2023/10/28 14:55:34;;;;;;;8.43;2.40;;;;;;;;;;5115982;28;20030;-74
2023/10/28 14:58:20;;;;;;;6.72;2.63;;;;;;;;;;5114865;28;20027;-73
2023/10/28 15:01:09;;;;;;;6.15;2.22;;;;;;;;;;5114570;28;20470;-74
2023/10/28 15:03:54;;;;;;;4.68;2.60;;;;;;;;;;5113477;28;20024;-74
2023/10/28 15:06:40;;;;;;;8.05;2.85;;;;;;;;;;5115525;28;20035;-74
2023/10/28 15:09:26;;;;;;;6.60;2.70;;;;;;;;;;5114519;28;20043;-74
2023/10/28 15:12:11;;;;;;;6.10;2.80;;;;;;;;;;5114748;28;20028;-75
2023/10/28 15:14:58;;;;;;;6.63;2.63;;;;;;;;;;5114987;28;20043;-74
2023/10/28 15:17:44;;;;;;;12.10;2.83;;;;;;;;;;5114618;28;20440;-75
2023/10/28 15:20:30;;;;;;;8.50;3.42;;;;;;;;;;5114179;28;20024;-74
2023/10/28 15:23:16;;;;;;;12.30;3.90;;;;;;;;;;5114449;28;20027;-74
2023/10/28 15:26:11;;;;;;;15.25;3.42;;;;;;;;;;5114214;28;20015;-73
2023/10/28 15:28:56;;;;;;;6.85;3.05;;;;;;;;;;5114568;28;20019;-74
2023/10/28 15:31:43;;;;;;;11.38;3.00;;;;;;;;;;5113938;28;20015;-75
2023/10/28 15:34:30;;;;;;;13.27;3.63;;;;;;;;;;5099346;28;20103;-75
2023/10/28 15:37:16;;;;;;;9.88;3.13;;;;;;;;;;5114799;28;20030;-75
2023/10/28 15:40:03;;;;;;;9.15;3.10;;;;;;;;;;5113913;28;20035;-74
2023/10/28 15:42:49;;;;;;;13.82;2.83;;;;;;;;;;5100074;28;20359;-74
2023/10/28 15:45:35;;;;;;;17.00;3.65;;;;;;;;;;5113961;28;20347;-74
2023/10/28 15:48:21;;;;;;;13.93;4.00;;;;;;;;;;5114208;28;20011;-75
2023/10/28 15:51:07;;;;;;;11.73;4.60;;;;;;;;;;5114176;28;20040;-74
2023/10/28 15:53:53;;;;;;;12.68;5.22;;;;;;;;;;5114648;28;20043;-73
2023/10/28 15:56:40;;;;;;;15.73;5.53;;;;;;;;;;5100141;28;20031;-73
2023/10/28 15:59:25;;;;;;;11.15;4.93;;;;;;;;;;5101427;28;20102;-75
2023/10/28 16:02:11;;;;;;;12.32;4.40;;;;;;;;;;5114449;28;20041;-75
2023/10/28 16:04:57;;;;;;;10.65;4.75;;;;;;;;;;5115574;28;20026;-74
2023/10/28 16:07:42;;;;;;;12.05;4.70;;;;;;;;;;5101009;28;20019;-77
2023/10/28 16:10:28;;;;;;;8.98;3.33;;;;;;;;;;5100873;28;20037;-74
2023/10/28 16:13:14;;;;;;;10.43;3.22;;;;;;;;;;5118121;28;20436;-74
2023/10/28 16:16:00;;;;;;;10.65;2.90;;;;;;;;;;5106630;28;20032;-74
2023/10/28 16:18:46;;;;;;;8.43;2.55;;;;;;;;;;5104246;28;20019;-74
2023/10/28 16:21:31;;;;;;;12.52;2.65;;;;;;;;;;5121993;28;20111;-73
2023/10/28 16:24:17;;;;;;;10.95;3.10;;;;;;;;;;5110397;28;20206;-74
2023/10/28 16:27:04;;;;;;;11.10;3.88;;;;;;;;;;5123161;28;20034;-73
2023/10/28 16:29:49;;;;;;;9.27;3.50;;;;;;;;;;5125744;28;20098;-74
2023/10/28 16:32:35;;;;;;;11.70;3.30;;;;;;;;;;5124710;28;20444;-74
2023/10/28 16:35:21;;;;;;;10.77;3.38;;;;;;;;;;5125990;28;20038;-73
2023/10/28 16:38:07;;;;;;;6.28;3.00;;;;;;;;;;5124252;28;20024;-75